createdAt,value
2022-10-03T00:00:04.891Z,10.40
2022-10-03T00:02:51.684Z,10.77
2022-10-03T00:05:38.696Z,10.13
2022-10-03T00:08:16.300Z,12.00
2022-10-03T00:10:57.040Z,9.83
2022-10-03T00:13:30.902Z,11.43
2022-10-03T00:16:10.421Z,9.20
2022-10-03T00:18:51.307Z,9.90
2022-10-03T00:22:04.023Z,10.87
2022-10-03T00:24:43.889Z,10.03
2022-10-03T00:27:18.694Z,10.60
2022-10-03T00:30:03.784Z,10.80
2022-10-03T00:32:47.485Z,9.90
2022-10-03T00:35:31.696Z,9.37
2022-10-03T00:38:19.586Z,9.57
2022-10-03T00:41:28.420Z,8.67
2022-10-03T00:44:27.835Z,8.77
2022-10-03T00:47:43.097Z,9.33
2022-10-03T00:50:43.157Z,9.33
2022-10-03T00:53:41.584Z,9.43
2022-10-03T00:56:30.235Z,10.50
2022-10-03T00:59:23.597Z,9.30
2022-10-03T01:01:52.371Z,8.70
2022-10-03T01:04:43.958Z,9.70
2022-10-03T01:07:27.672Z,7.00
2022-10-03T01:10:10.439Z,8.70
2022-10-03T01:13:04.897Z,7.90
2022-10-03T01:15:44.886Z,7.77
2022-10-03T01:18:23.051Z,7.87
2022-10-03T01:21:05.431Z,8.43
2022-10-03T01:23:57.996Z,7.93
2022-10-03T01:26:50.555Z,8.03
2022-10-03T01:29:45.690Z,8.73
2022-10-03T01:32:19.586Z,8.20
2022-10-03T01:34:54.216Z,7.57
2022-10-03T01:37:29.897Z,8.40
2022-10-03T01:40:07.810Z,8.80
2022-10-03T01:42:43.979Z,8.30
2022-10-03T01:45:26.321Z,8.43
2022-10-03T01:48:01.672Z,7.17
2022-10-03T01:50:34.828Z,8.43
2022-10-03T01:53:10.324Z,8.33
2022-10-03T01:55:57.474Z,7.80
2022-10-03T01:58:31.333Z,8.30
2022-10-03T02:01:09.584Z,8.03
2022-10-03T02:03:47.209Z,7.67
2022-10-03T02:06:25.449Z,6.97
2022-10-03T02:09:03.433Z,8.47
2022-10-03T02:11:39.401Z,7.90
2022-10-03T02:14:17.684Z,8.73
2022-10-03T02:16:58.311Z,7.60
2022-10-03T02:19:57.009Z,6.53
2022-10-03T02:22:36.067Z,7.97
2022-10-03T02:25:20.265Z,8.23
2022-10-03T02:28:30.698Z,7.23
2022-10-03T02:31:25.065Z,8.67
2022-10-03T02:34:17.334Z,9.40
2022-10-03T02:37:08.886Z,8.50
2022-10-03T02:40:12.672Z,8.90
2022-10-03T02:43:11.380Z,29.63
2022-10-03T02:46:08.653Z,13.73
2022-10-03T02:49:06.476Z,10.63
2022-10-03T02:51:59.054Z,9.50
2022-10-03T02:55:00.215Z,10.07
2022-10-03T02:58:19.860Z,9.33
2022-10-03T03:01:23.741Z,9.97
2022-10-03T03:04:23.595Z,10.40
2022-10-03T03:07:29.200Z,10.30
2022-10-03T03:10:39.424Z,9.83
2022-10-03T03:13:27.277Z,11.33
2022-10-03T03:16:34.185Z,9.23
2022-10-03T03:19:32.380Z,10.47
2022-10-03T03:22:33.225Z,10.10
2022-10-03T03:25:24.923Z,9.97
2022-10-03T03:28:03.823Z,11.30
2022-10-03T03:30:40.093Z,10.17
2022-10-03T03:33:22.051Z,11.43
2022-10-03T03:36:03.808Z,10.80
2022-10-03T03:38:42.440Z,9.93
2022-10-03T03:41:44.382Z,10.87
2022-10-03T03:44:38.427Z,10.80
2022-10-03T03:47:20.794Z,10.00
2022-10-03T03:50:08.784Z,10.13
2022-10-03T03:52:53.102Z,9.20
2022-10-03T03:55:37.680Z,10.23
2022-10-03T03:58:24.557Z,10.97
2022-10-03T04:01:11.890Z,10.30
2022-10-03T04:03:54.910Z,9.07
2022-10-03T04:06:38.223Z,9.03
2022-10-03T04:09:30.897Z,9.70
2022-10-03T04:12:11.078Z,10.50
2022-10-03T04:15:02.513Z,11.30
2022-10-03T04:18:05.932Z,20.70
2022-10-03T04:20:51.966Z,10.33
2022-10-03T04:23:34.757Z,16.70
2022-10-03T04:26:18.082Z,11.60
2022-10-03T04:29:23.286Z,9.77
2022-10-03T04:32:01.742Z,10.70
2022-10-03T04:34:42.590Z,9.57
2022-10-03T04:37:24.376Z,11.07
2022-10-03T04:40:03.558Z,9.57
2022-10-03T04:42:43.974Z,10.03
2022-10-03T04:45:28.841Z,11.03
2022-10-03T04:48:06.209Z,13.60
2022-10-03T04:50:41.240Z,10.70
2022-10-03T04:53:39.119Z,10.93
2022-10-03T04:56:22.210Z,9.57
2022-10-03T04:58:57.584Z,10.97
2022-10-03T05:01:35.098Z,10.87
2022-10-03T05:04:12.505Z,10.50
2022-10-03T05:06:49.371Z,17.43
2022-10-03T05:09:27.067Z,15.50
2022-10-03T05:12:02.229Z,15.10
2022-10-03T05:14:50.016Z,13.90
2022-10-03T05:17:24.316Z,9.90
2022-10-03T05:20:15.381Z,11.93
2022-10-03T05:22:53.063Z,12.07
2022-10-03T05:25:29.868Z,11.43
2022-10-03T05:28:08.782Z,11.57
2022-10-03T05:30:46.839Z,11.53
2022-10-03T05:33:27.921Z,11.27
2022-10-03T05:36:13.282Z,11.60
2022-10-03T05:39:06.410Z,19.70
2022-10-03T05:41:36.545Z,36.40
2022-10-03T05:44:09.439Z,34.30
2022-10-03T05:46:49.129Z,37.60
2022-10-03T05:49:36.541Z,23.53
2022-10-03T05:52:32.723Z,11.90
2022-10-03T05:55:09.765Z,11.10
2022-10-03T05:58:10.483Z,17.93
2022-10-03T06:00:59.706Z,14.23
2022-10-03T06:04:06.103Z,49.97
2022-10-03T06:06:57.890Z,22.30
2022-10-03T06:09:52.501Z,12.73
2022-10-03T06:12:26.218Z,10.90
2022-10-03T06:15:15.746Z,12.13
2022-10-03T06:18:03.983Z,11.80
2022-10-03T06:21:10.452Z,12.20
2022-10-03T06:24:37.659Z,11.50
2022-10-03T06:27:47.257Z,11.13
2022-10-03T06:30:24.313Z,10.73
2022-10-03T06:33:33.896Z,13.00
2022-10-03T06:36:38.235Z,12.23
2022-10-03T06:39:47.023Z,11.47
2022-10-03T06:42:57.554Z,11.93
2022-10-03T06:46:12.141Z,12.07
2022-10-03T06:49:17.178Z,15.70
2022-10-03T06:51:59.423Z,12.53
2022-10-03T06:55:21.438Z,12.73
2022-10-03T06:58:24.384Z,13.70
2022-10-03T07:01:24.700Z,11.87
2022-10-03T07:04:15.031Z,15.13
2022-10-03T07:07:10.509Z,12.10
2022-10-03T07:10:16.204Z,13.00
2022-10-03T07:13:06.431Z,12.97
2022-10-03T07:16:26.005Z,13.10
2022-10-03T07:19:53.128Z,12.93
2022-10-03T07:23:00.198Z,12.23
2022-10-03T07:26:11.058Z,12.50
2022-10-03T07:29:16.178Z,14.33
2022-10-03T07:32:12.199Z,15.27
2022-10-03T07:35:09.096Z,13.77
2022-10-03T07:38:34.695Z,13.77
2022-10-03T07:41:22.582Z,12.10
2022-10-03T07:44:18.018Z,13.73
2022-10-03T07:47:31.143Z,13.20
2022-10-03T07:50:18.595Z,13.17
2022-10-03T07:53:10.395Z,13.03
2022-10-03T07:56:00.524Z,12.73
2022-10-03T07:58:49.999Z,12.57
2022-10-03T08:01:36.529Z,12.43
2022-10-03T08:04:31.007Z,12.77
2022-10-03T08:07:16.389Z,14.27
2022-10-03T08:13:44.211Z,13.10
2022-10-03T08:16:37.559Z,13.60
2022-10-03T08:19:55.811Z,11.80
2022-10-03T08:22:47.835Z,13.63
2022-10-03T08:25:28.988Z,12.40
2022-10-03T08:28:19.373Z,11.40
2022-10-03T08:31:11.118Z,13.10
2022-10-03T08:34:12.689Z,12.80
2022-10-03T08:37:13.328Z,11.70
2022-10-03T08:40:30.552Z,12.93
2022-10-03T08:43:33.448Z,13.20
2022-10-03T08:46:18.608Z,12.57
2022-10-03T08:49:22.572Z,13.30
2022-10-03T08:52:12.718Z,12.87
2022-10-03T08:55:15.531Z,12.17
2022-10-03T08:58:16.941Z,10.87
2022-10-03T09:01:09.880Z,12.23
2022-10-03T09:04:15.513Z,9.80
2022-10-03T09:07:19.262Z,11.00
2022-10-03T09:10:33.138Z,10.57
2022-10-03T09:13:27.911Z,9.73
2022-10-03T09:16:40.342Z,8.67
2022-10-03T09:19:41.125Z,9.10
2022-10-03T09:22:34.707Z,8.53
2022-10-03T09:25:35.228Z,9.00
2022-10-03T09:28:43.125Z,8.10
2022-10-03T09:31:30.836Z,7.60
2022-10-03T09:34:43.810Z,7.27
2022-10-03T09:37:39.349Z,8.17
2022-10-03T09:40:56.717Z,8.30
2022-10-03T09:44:09.845Z,7.53
2022-10-03T09:47:28.147Z,7.10
2022-10-03T09:50:30.702Z,6.90
2022-10-03T09:53:32.476Z,5.83
2022-10-03T09:56:38.447Z,6.20
2022-10-03T09:59:21.612Z,4.97
2022-10-03T10:01:55.229Z,5.23
2022-10-03T10:04:55.942Z,4.07
2022-10-03T10:07:58.347Z,3.30
2022-10-03T10:11:03.295Z,4.03
2022-10-03T10:14:24.337Z,4.77
2022-10-03T10:17:19.970Z,4.90
2022-10-03T10:20:05.526Z,4.60
2022-10-03T10:23:16.745Z,3.73
2022-10-03T10:26:15.703Z,3.40
2022-10-03T10:29:20.375Z,3.80
2022-10-03T10:32:48.894Z,3.37
2022-10-03T10:36:10.652Z,3.40
2022-10-03T10:39:26.674Z,3.07
2022-10-03T10:42:40.620Z,3.70
2022-10-03T10:45:40.619Z,5.07
2022-10-03T10:49:13.098Z,3.50
2022-10-03T10:52:17.107Z,2.67
2022-10-03T10:55:36.681Z,3.20
2022-10-03T10:58:48.414Z,2.97
2022-10-03T11:01:46.459Z,3.80
2022-10-03T11:04:48.305Z,3.43
2022-10-03T11:08:17.754Z,2.70
2022-10-03T11:11:08.960Z,4.17
2022-10-03T11:14:04.326Z,3.77
2022-10-03T11:17:21.175Z,2.50
2022-10-03T11:20:31.197Z,2.97
2022-10-03T11:23:45.669Z,2.50
2022-10-03T11:27:07.168Z,2.90
2022-10-03T11:30:08.950Z,2.27
2022-10-03T11:33:18.706Z,3.00
2022-10-03T11:36:20.057Z,3.13
2022-10-03T11:39:03.730Z,2.93
2022-10-03T11:41:45.112Z,2.60
2022-10-03T11:44:21.097Z,2.73
2022-10-03T11:46:57.170Z,2.30
2022-10-03T11:50:01.701Z,3.03
2022-10-03T11:52:36.133Z,2.43
2022-10-03T11:55:26.674Z,3.90
2022-10-03T11:58:07.498Z,2.90
2022-10-03T12:00:38.564Z,3.60
2022-10-03T12:03:21.779Z,2.90
2022-10-03T12:06:18.722Z,2.40
2022-10-03T12:08:59.898Z,2.80
2022-10-03T12:11:34.593Z,2.73
2022-10-03T12:14:32.708Z,3.07
2022-10-03T12:17:07.083Z,3.57
2022-10-03T12:19:44.173Z,3.23
2022-10-03T12:22:25.886Z,2.73
2022-10-03T12:25:02.582Z,3.20
2022-10-03T12:27:43.479Z,3.00
2022-10-03T12:30:16.786Z,2.90
2022-10-03T12:32:58.856Z,2.90
2022-10-03T12:35:40.516Z,3.47
2022-10-03T12:38:26.465Z,3.33
2022-10-03T12:41:08.445Z,3.77
2022-10-03T12:43:52.189Z,3.80
2022-10-03T12:46:32.903Z,3.83
2022-10-03T12:49:08.857Z,4.20
2022-10-03T12:51:52.346Z,3.13
2022-10-03T12:54:38.454Z,3.57
2022-10-03T12:57:36.304Z,3.37
2022-10-03T13:00:08.889Z,5.10
2022-10-03T13:02:43.047Z,4.70
2022-10-03T13:05:30.555Z,3.60
2022-10-03T13:08:02.494Z,3.53
2022-10-03T13:10:42.843Z,4.07
2022-10-03T13:13:25.462Z,4.60
2022-10-03T13:16:21.988Z,4.13
2022-10-03T13:18:59.011Z,5.00
2022-10-03T13:21:54.387Z,5.40
2022-10-03T13:24:32.426Z,4.43
2022-10-03T13:27:12.486Z,4.07
2022-10-03T13:29:43.672Z,4.37
2022-10-03T13:32:32.048Z,4.70
2022-10-03T13:35:23.292Z,4.20
2022-10-03T13:38:11.482Z,5.70
2022-10-03T13:40:46.422Z,4.97
2022-10-03T13:43:19.770Z,4.10
2022-10-03T13:45:51.621Z,4.53
2022-10-03T13:48:25.703Z,5.37
2022-10-03T13:51:02.158Z,4.80
2022-10-03T13:53:49.657Z,5.60
2022-10-03T13:56:25.101Z,5.23
2022-10-03T13:59:04.312Z,4.37
2022-10-03T14:01:44.833Z,5.27
2022-10-03T14:04:40.811Z,5.00
2022-10-03T14:07:14.540Z,5.13
2022-10-03T14:10:05.474Z,4.77
2022-10-03T14:12:55.752Z,4.97
2022-10-03T14:15:45.586Z,5.83
2022-10-03T14:18:33.192Z,5.50
2022-10-03T14:21:44.858Z,5.00
2022-10-03T14:24:27.359Z,4.80
2022-10-03T14:27:01.392Z,5.60
2022-10-03T14:29:37.503Z,4.50
2022-10-03T14:32:42.280Z,5.93
2022-10-03T14:35:11.357Z,5.17
2022-10-03T14:37:52.600Z,6.10
2022-10-03T14:40:28.039Z,5.63
2022-10-03T14:43:16.865Z,5.10
2022-10-03T14:45:49.016Z,5.17
2022-10-03T14:48:21.400Z,4.77
2022-10-03T14:50:54.811Z,4.20
2022-10-03T14:53:29.763Z,5.13
2022-10-03T14:56:02.938Z,4.40
2022-10-03T14:58:35.593Z,4.73
2022-10-03T15:01:10.786Z,5.37
2022-10-03T15:03:41.475Z,4.30
2022-10-03T15:06:34.126Z,4.50
2022-10-03T15:09:10.487Z,5.23
2022-10-03T15:11:49.176Z,5.20
2022-10-03T15:14:18.207Z,4.50
2022-10-03T15:16:51.187Z,5.10
2022-10-03T15:19:22.921Z,4.90
2022-10-03T15:21:54.375Z,4.87
2022-10-03T15:24:27.397Z,4.83
2022-10-03T15:27:00.656Z,5.20
2022-10-03T15:29:30.947Z,5.00
2022-10-03T15:32:00.663Z,4.23
2022-10-03T15:34:35.993Z,4.57
2022-10-03T15:37:15.059Z,5.17
2022-10-03T15:39:46.778Z,4.97
2022-10-03T15:42:25.530Z,4.93
2022-10-03T15:44:58.006Z,5.00
2022-10-03T15:47:28.472Z,4.40
2022-10-03T15:50:00.767Z,5.90
2022-10-03T15:52:35.727Z,5.10
2022-10-03T15:55:12.511Z,4.80
2022-10-03T15:57:46.481Z,4.97
2022-10-03T16:00:27.227Z,5.57
2022-10-03T16:03:07.640Z,4.30
2022-10-03T16:05:38.344Z,4.90
2022-10-03T16:08:11.421Z,4.93
2022-10-03T16:10:46.144Z,4.40
2022-10-03T16:13:30.328Z,4.90
2022-10-03T16:16:13.086Z,4.70
2022-10-03T16:18:56.972Z,5.40
2022-10-03T16:21:47.134Z,5.47
2022-10-03T16:24:26.542Z,5.77
2022-10-03T16:27:05.383Z,5.23
2022-10-03T16:29:38.423Z,7.20
2022-10-03T16:32:10.360Z,5.30
2022-10-03T16:34:46.291Z,4.87
2022-10-03T16:37:30.244Z,4.73
2022-10-03T16:40:03.061Z,5.00
2022-10-03T16:42:43.331Z,5.33
2022-10-03T16:45:23.507Z,4.80
2022-10-03T16:48:14.318Z,5.30
2022-10-03T16:50:49.746Z,5.17
2022-10-03T16:53:20.841Z,6.03
2022-10-03T16:55:53.651Z,5.67
2022-10-03T16:58:30.319Z,5.53
2022-10-03T17:04:00.025Z,38.97
2022-10-03T17:06:34.345Z,13.70
2022-10-03T17:09:08.888Z,7.43
2022-10-03T17:11:41.973Z,5.00
2022-10-03T17:14:12.491Z,5.77
2022-10-03T17:16:47.852Z,6.20
2022-10-03T17:19:23.278Z,7.60
2022-10-03T17:21:54.814Z,7.40
2022-10-03T17:24:34.550Z,7.23
2022-10-03T17:27:15.673Z,9.00
2022-10-03T17:29:49.668Z,8.07
2022-10-03T17:32:23.495Z,8.20
2022-10-03T17:34:58.843Z,7.93
2022-10-03T17:38:24.526Z,8.53
2022-10-03T17:41:02.586Z,9.00
2022-10-03T17:43:40.303Z,9.87
2022-10-03T17:46:18.712Z,10.80
2022-10-03T17:48:52.814Z,12.53
2022-10-03T17:51:51.669Z,11.83
2022-10-03T17:54:33.603Z,10.10
2022-10-03T17:57:12.029Z,9.33
2022-10-03T17:59:48.020Z,7.60
2022-10-03T18:02:25.102Z,7.40
2022-10-03T18:05:01.896Z,7.80
2022-10-03T18:07:32.072Z,7.77
2022-10-03T18:10:05.753Z,9.50
2022-10-03T18:12:38.796Z,9.70
2022-10-03T18:15:40.835Z,9.93
2022-10-03T18:18:55.491Z,9.17
2022-10-03T18:21:38.302Z,9.73
2022-10-03T18:24:23.503Z,8.43
2022-10-03T18:27:02.321Z,9.60
2022-10-03T18:29:34.321Z,9.20
2022-10-03T18:32:16.642Z,9.80
2022-10-03T18:34:48.982Z,9.73
2022-10-03T18:37:53.366Z,8.40
2022-10-03T18:40:26.752Z,8.33
2022-10-03T18:42:55.623Z,8.27
2022-10-03T18:45:29.090Z,7.83
2022-10-03T18:48:05.455Z,7.80
2022-10-03T18:50:49.582Z,8.40
2022-10-03T18:53:24.123Z,8.67
2022-10-03T18:55:59.861Z,8.17
2022-10-03T18:58:31.053Z,8.97
2022-10-03T19:01:03.922Z,9.57
2022-10-03T19:03:38.089Z,11.20
2022-10-03T19:06:19.253Z,11.00
2022-10-03T19:08:52.210Z,10.90
2022-10-03T19:11:24.575Z,10.50
2022-10-03T19:14:01.723Z,9.80
2022-10-03T19:16:55.471Z,10.40
2022-10-03T19:19:33.196Z,12.63
2022-10-03T19:22:07.341Z,12.50
2022-10-03T19:24:57.445Z,16.63
2022-10-03T19:30:30.179Z,20.00
2022-10-03T19:33:40.514Z,19.53
2022-10-03T19:36:40.087Z,17.60
2022-10-03T19:39:58.178Z,13.30
2022-10-03T19:42:41.747Z,11.73
2022-10-03T19:45:16.055Z,19.23
2022-10-03T19:47:52.311Z,18.30
2022-10-03T19:50:23.259Z,12.10
2022-10-03T19:52:51.827Z,9.80
2022-10-03T19:55:24.252Z,8.60
2022-10-03T19:57:57.489Z,10.27
2022-10-03T20:00:31.903Z,9.97
2022-10-03T20:06:01.443Z,12.10
2022-10-03T20:08:40.056Z,10.63
2022-10-03T20:11:23.089Z,11.30
2022-10-03T20:13:53.564Z,9.13
2022-10-03T20:16:25.193Z,10.10
2022-10-03T20:18:59.035Z,10.97
2022-10-03T20:21:29.907Z,10.67
2022-10-03T20:24:01.597Z,10.57
2022-10-03T20:26:36.694Z,10.17
2022-10-03T20:29:19.505Z,8.70
2022-10-03T20:31:48.801Z,9.73
2022-10-03T20:34:23.894Z,9.83
2022-10-03T20:36:55.963Z,7.90
2022-10-03T20:39:27.971Z,7.33
2022-10-03T20:42:11.306Z,7.37
2022-10-03T20:45:01.822Z,7.23
2022-10-03T20:47:47.953Z,8.97
2022-10-03T20:50:24.117Z,8.33
2022-10-03T20:52:55.105Z,8.30
2022-10-03T20:55:26.683Z,7.23
2022-10-03T20:58:04.542Z,7.80
2022-10-03T21:00:40.287Z,8.60
2022-10-03T21:03:14.702Z,9.30
2022-10-03T21:05:50.001Z,10.70
2022-10-03T21:08:24.289Z,10.20
2022-10-03T21:10:56.560Z,8.50
2022-10-03T21:13:33.669Z,8.07
2022-10-03T21:16:15.896Z,7.63
2022-10-03T21:18:47.423Z,8.10
2022-10-03T21:21:33.873Z,33.90
2022-10-03T21:24:07.490Z,7.73
2022-10-03T21:26:44.439Z,7.83
2022-10-03T21:29:30.251Z,7.10
2022-10-03T21:32:12.378Z,5.80
2022-10-03T21:34:51.041Z,6.90
2022-10-03T21:37:28.348Z,6.50
2022-10-03T21:40:09.452Z,8.00
2022-10-03T21:42:46.203Z,8.17
2022-10-03T21:45:29.140Z,31.27
2022-10-03T21:48:07.944Z,24.03
2022-10-03T21:50:44.582Z,8.90
2022-10-03T21:53:22.816Z,7.43
2022-10-03T21:56:26.347Z,7.53
2022-10-03T21:59:16.038Z,7.03
2022-10-03T22:01:55.244Z,8.87
2022-10-03T22:04:35.437Z,7.30
2022-10-03T22:07:09.559Z,6.67
2022-10-03T22:09:47.433Z,7.47
2022-10-03T22:12:17.603Z,7.73
2022-10-03T22:14:55.294Z,6.90
2022-10-03T22:17:37.999Z,6.30
2022-10-03T22:20:17.341Z,6.37
2022-10-03T22:23:11.770Z,6.47
2022-10-03T22:26:05.070Z,6.53
2022-10-03T22:28:56.426Z,6.03
2022-10-03T22:31:31.191Z,6.77
2022-10-03T22:34:12.147Z,5.97
2022-10-03T22:36:43.672Z,6.63
2022-10-03T22:39:13.404Z,14.67
2022-10-03T22:41:44.629Z,8.60
2022-10-03T22:44:15.997Z,6.60
2022-10-03T22:46:46.946Z,5.77
2022-10-03T22:49:20.770Z,6.00
2022-10-03T22:51:53.893Z,5.93
2022-10-03T22:54:22.739Z,5.23
2022-10-03T22:56:56.804Z,6.43
2022-10-03T22:59:28.714Z,6.70
2022-10-03T23:02:00.172Z,5.70
2022-10-03T23:04:33.868Z,5.60
2022-10-03T23:07:35.343Z,5.37
2022-10-03T23:10:28.340Z,5.33
2022-10-03T23:13:03.920Z,6.03
2022-10-03T23:15:34.262Z,6.37
2022-10-03T23:18:26.026Z,6.20
2022-10-03T23:21:11.947Z,5.60
2022-10-03T23:23:54.671Z,5.73
2022-10-03T23:26:45.220Z,5.73
2022-10-03T23:29:15.367Z,5.83
2022-10-03T23:31:55.080Z,4.97
2022-10-03T23:34:49.240Z,5.20
2022-10-03T23:37:37.750Z,5.90
2022-10-03T23:40:36.575Z,5.60
2022-10-03T23:43:32.771Z,5.23
2022-10-03T23:47:41.444Z,5.17
2022-10-03T23:56:38.088Z,5.03
2022-10-03T23:59:23.532Z,5.80
